sensor_id;sensor_type;location;lat;lon;timestamp;pressure;altitude;pressure_sealevel;temperature;humidity
72798;BME280;61084;55.816;37.036;2023-04-19T00:00:46;100357.63;;;10.86;42.71
72798;BME280;61084;55.816;37.036;2023-04-19T00:03:12;100360.41;;;10.83;42.43
72798;BME280;61084;55.816;37.036;2023-04-19T00:05:39;100363.84;;;10.83;42.37
72798;BME280;61084;55.816;37.036;2023-04-19T00:08:06;100363.03;;;10.83;42.29
72798;BME280;61084;55.816;37.036;2023-04-19T00:10:32;100362.09;;;10.84;42.14
72798;BME280;61084;55.816;37.036;2023-04-19T00:13:01;100365.50;;;10.86;42.17
72798;BME280;61084;55.816;37.036;2023-04-19T00:15:27;100369.00;;;10.86;42.28
72798;BME280;61084;55.816;37.036;2023-04-19T00:17:53;100366.50;;;10.83;41.96
72798;BME280;61084;55.816;37.036;2023-04-19T00:20:20;100363.84;;;10.83;42.33
72798;BME280;61084;55.816;37.036;2023-04-19T00:22:46;100369.94;;;10.85;42.06
72798;BME280;61084;55.816;37.036;2023-04-19T00:25:13;100376.03;;;10.86;42.04
72798;BME280;61084;55.816;37.036;2023-04-19T00:27:39;100367.34;;;10.84;42.02
72798;BME280;61084;55.816;37.036;2023-04-19T00:30:05;100362.16;;;10.82;41.87
72798;BME280;61084;55.816;37.036;2023-04-19T00:32:32;100363.13;;;10.80;41.85
72798;BME280;61084;55.816;37.036;2023-04-19T00:34:58;100363.25;;;10.77;41.82
72798;BME280;61084;55.816;37.036;2023-04-19T00:37:25;100361.47;;;10.77;41.93
72798;BME280;61084;55.816;37.036;2023-04-19T00:39:51;100367.66;;;10.76;41.92
72798;BME280;61084;55.816;37.036;2023-04-19T00:42:17;100367.69;;;10.75;41.61
72798;BME280;61084;55.816;37.036;2023-04-19T00:44:46;100370.38;;;10.73;41.52
72798;BME280;61084;55.816;37.036;2023-04-19T00:47:13;100373.00;;;10.73;41.66
72798;BME280;61084;55.816;37.036;2023-04-19T00:49:39;100369.59;;;10.71;41.51
72798;BME280;61084;55.816;37.036;2023-04-19T00:52:06;100379.19;;;10.72;41.75
72798;BME280;61084;55.816;37.036;2023-04-19T00:54:32;100381.81;;;10.72;41.21
72798;BME280;61084;55.816;37.036;2023-04-19T00:56:58;100382.78;;;10.70;41.19
72798;BME280;61084;55.816;37.036;2023-04-19T00:59:24;100378.59;;;10.64;41.40
72798;BME280;61084;55.816;37.036;2023-04-19T01:01:51;100380.38;;;10.63;41.12
72798;BME280;61084;55.816;37.036;2023-04-19T01:04:16;100376.94;;;10.61;41.36
72798;BME280;61084;55.816;37.036;2023-04-19T01:06:42;100381.41;;;10.59;41.29
72798;BME280;61084;55.816;37.036;2023-04-19T01:09:10;100384.03;;;10.59;41.31
72798;BME280;61084;55.816;37.036;2023-04-19T01:11:39;100389.34;;;10.58;41.10
72798;BME280;61084;55.816;37.036;2023-04-19T01:14:07;100378.91;;;10.56;41.15
72798;BME280;61084;55.816;37.036;2023-04-19T01:16:33;100377.25;;;10.54;40.75
72798;BME280;61084;55.816;37.036;2023-04-19T01:18:58;100383.47;;;10.51;40.90
72798;BME280;61084;55.816;37.036;2023-04-19T01:21:25;100378.28;;;10.50;40.58
72798;BME280;61084;55.816;37.036;2023-04-19T01:23:51;100378.28;;;10.50;41.08
72798;BME280;61084;55.816;37.036;2023-04-19T01:26:17;100380.84;;;10.51;40.90
72798;BME280;61084;55.816;37.036;2023-04-19T01:28:43;100387.00;;;10.50;40.88
72798;BME280;61084;55.816;37.036;2023-04-19T01:31:09;100374.00;;;10.47;40.92
72798;BME280;61084;55.816;37.036;2023-04-19T01:33:36;100377.47;;;10.48;40.86
72798;BME280;61084;55.816;37.036;2023-04-19T01:36:02;100376.63;;;10.47;40.87
72798;BME280;61084;55.816;37.036;2023-04-19T01:38:28;100381.06;;;10.45;40.92
72798;BME280;61084;55.816;37.036;2023-04-19T01:40:55;100380.28;;;10.43;40.52
72798;BME280;61084;55.816;37.036;2023-04-19T01:43:24;100375.06;;;10.42;40.57
72798;BME280;61084;55.816;37.036;2023-04-19T01:45:50;100375.06;;;10.42;40.71
72798;BME280;61084;55.816;37.036;2023-04-19T01:48:19;100375.94;;;10.42;40.66
72798;BME280;61084;55.816;37.036;2023-04-19T01:50:45;100379.41;;;10.43;40.84
72798;BME280;61084;55.816;37.036;2023-04-19T01:53:11;100376.72;;;10.44;40.78
72798;BME280;61084;55.816;37.036;2023-04-19T01:55:38;100386.31;;;10.45;40.37
72798;BME280;61084;55.816;37.036;2023-04-19T01:58:04;100376.63;;;10.47;40.80
72798;BME280;61084;55.816;37.036;2023-04-19T02:00:30;100375.69;;;10.48;40.47
72798;BME280;61084;55.816;37.036;2023-04-19T02:02:57;100370.44;;;10.48;40.77
72798;BME280;61084;55.816;37.036;2023-04-19T02:05:41;100371.47;;;10.44;40.72
72798;BME280;61084;55.816;37.036;2023-04-19T02:08:07;100371.63;;;10.40;40.66
72798;BME280;61084;55.816;37.036;2023-04-19T02:10:33;100368.22;;;10.38;40.65
72798;BME280;61084;55.816;37.036;2023-04-19T02:12:59;100371.63;;;10.40;40.73
72798;BME280;61084;55.816;37.036;2023-04-19T02:15:26;100377.81;;;10.39;40.44
72798;BME280;61084;55.816;37.036;2023-04-19T02:18:12;100380.31;;;10.42;40.40
72798;BME280;61084;55.816;37.036;2023-04-19T02:20:39;100369.94;;;10.39;40.50
72798;BME280;61084;55.816;37.036;2023-04-19T02:23:05;100370.84;;;10.38;40.62
72798;BME280;61084;55.816;37.036;2023-04-19T02:25:31;100375.19;;;10.39;40.53
72798;BME280;61084;55.816;37.036;2023-04-19T02:27:56;100379.50;;;10.40;40.34
72798;BME280;61084;55.816;37.036;2023-04-19T02:30:22;100382.13;;;10.40;40.85
72798;BME280;61084;55.816;37.036;2023-04-19T02:32:49;100384.75;;;10.40;40.68
72798;BME280;61084;55.816;37.036;2023-04-19T02:35:15;100380.38;;;10.40;40.61
72798;BME280;61084;55.816;37.036;2023-04-19T02:37:42;100376.94;;;10.38;40.68
72798;BME280;61084;55.816;37.036;2023-04-19T02:40:08;100383.00;;;10.40;40.80
72798;BME280;61084;55.816;37.036;2023-04-19T02:42:34;100375.13;;;10.40;40.29
72798;BME280;61084;55.816;37.036;2023-04-19T02:45:00;100377.03;;;10.37;40.85
72798;BME280;61084;55.816;37.036;2023-04-19T02:47:26;100382.31;;;10.35;40.24
72798;BME280;61084;55.816;37.036;2023-04-19T02:49:52;100384.91;;;10.35;40.51
72798;BME280;61084;55.816;37.036;2023-04-19T02:52:18;100387.44;;;10.38;40.39
72798;BME280;61084;55.816;37.036;2023-04-19T02:54:45;100378.72;;;10.38;40.63
72798;BME280;61084;55.816;37.036;2023-04-19T02:57:11;100382.19;;;10.38;40.73
72798;BME280;61084;55.816;37.036;2023-04-19T02:59:39;100384.81;;;10.38;40.36
72798;BME280;61084;55.816;37.036;2023-04-19T03:02:05;100385.63;;;10.40;40.24
72798;BME280;61084;55.816;37.036;2023-04-19T03:04:30;100386.66;;;10.36;40.60
72798;BME280;61084;55.816;37.036;2023-04-19T03:06:56;100387.63;;;10.34;40.82
72798;BME280;61084;55.816;37.036;2023-04-19T03:09:23;100387.69;;;10.32;40.58
72798;BME280;61084;55.816;37.036;2023-04-19T03:11:48;100389.44;;;10.32;40.73
72798;BME280;61084;55.816;37.036;2023-04-19T03:14:16;100398.19;;;10.32;40.84
72798;BME280;61084;55.816;37.036;2023-04-19T03:16:42;100391.19;;;10.31;40.44
72798;BME280;61084;55.816;37.036;2023-04-19T03:19:08;100393.78;;;10.33;40.71
72798;BME280;61084;55.816;37.036;2023-04-19T03:21:40;100394.53;;;10.36;40.30
72798;BME280;61084;55.816;37.036;2023-04-19T03:24:06;100398.00;;;10.37;40.39
72798;BME280;61084;55.816;37.036;2023-04-19T03:26:37;100400.56;;;10.38;40.41
72798;BME280;61084;55.816;37.036;2023-04-19T03:29:03;100406.63;;;10.40;40.74
72798;BME280;61084;55.816;37.036;2023-04-19T03:31:51;100408.38;;;10.40;40.48
72798;BME280;61084;55.816;37.036;2023-04-19T03:34:18;100402.31;;;10.39;40.44
72798;BME280;61084;55.816;37.036;2023-04-19T03:36:46;100399.59;;;10.41;40.65
72798;BME280;61084;55.816;37.036;2023-04-19T03:39:12;100396.97;;;10.41;40.43
72798;BME280;61084;55.816;37.036;2023-04-19T03:41:40;100396.97;;;10.41;40.82
72798;BME280;61084;55.816;37.036;2023-04-19T03:44:16;100405.66;;;10.43;40.88
72798;BME280;61084;55.816;37.036;2023-04-19T03:46:43;100403.03;;;10.43;40.62
72798;BME280;61084;55.816;37.036;2023-04-19T03:49:12;100410.03;;;10.42;40.40
72798;BME280;61084;55.816;37.036;2023-04-19T03:51:41;100402.94;;;10.46;40.42
72798;BME280;61084;55.816;37.036;2023-04-19T03:54:07;100409.81;;;10.48;40.58
72798;BME280;61084;55.816;37.036;2023-04-19T03:56:33;100409.72;;;10.51;40.35
72798;BME280;61084;55.816;37.036;2023-04-19T03:58:58;100405.34;;;10.52;40.97
72798;BME280;61084;55.816;37.036;2023-04-19T04:01:26;100409.63;;;10.54;40.81
72798;BME280;61084;55.816;37.036;2023-04-19T04:03:54;100408.63;;;10.57;41.05
72798;BME280;61084;55.816;37.036;2023-04-19T04:06:20;100406.81;;;10.59;40.63
72798;BME280;61084;55.816;37.036;2023-04-19T04:08:46;100408.44;;;10.61;40.68
72798;BME280;61084;55.816;37.036;2023-04-19T04:11:12;100406.59;;;10.65;40.76
72798;BME280;61084;55.816;37.036;2023-04-19T04:13:38;100413.38;;;10.71;40.47
72798;BME280;61084;55.816;37.036;2023-04-19T04:16:11;100408.00;;;10.74;40.40
72798;BME280;61084;55.816;37.036;2023-04-19T04:18:37;100412.31;;;10.76;40.90
72798;BME280;61084;55.816;37.036;2023-04-19T04:21:08;100415.72;;;10.78;40.57
72798;BME280;61084;55.816;37.036;2023-04-19T04:23:36;100408.47;;;10.85;40.78
72798;BME280;61084;55.816;37.036;2023-04-19T04:26:06;100412.63;;;10.90;40.64
72798;BME280;61084;55.816;37.036;2023-04-19T04:28:51;100409.66;;;10.99;40.60
72798;BME280;61084;55.816;37.036;2023-04-19T04:31:18;100414.66;;;11.05;40.54
72798;BME280;61084;55.816;37.036;2023-04-19T04:33:46;100413.34;;;11.17;40.44
72798;BME280;61084;55.816;37.036;2023-04-19T04:36:13;100414.81;;;11.24;40.24
72798;BME280;61084;55.816;37.036;2023-04-19T04:38:41;100418.06;;;11.30;40.47
72798;BME280;61084;55.816;37.036;2023-04-19T04:41:07;100411.50;;;11.41;40.08
72798;BME280;61084;55.816;37.036;2023-04-19T04:43:33;100419.09;;;11.48;40.14
72798;BME280;61084;55.816;37.036;2023-04-19T04:45:59;100419.63;;;11.56;40.24
72798;BME280;61084;55.816;37.036;2023-04-19T04:48:30;100418.47;;;11.63;39.91
72798;BME280;61084;55.816;37.036;2023-04-19T04:50:56;100418.19;;;11.71;39.95
72798;BME280;61084;55.816;37.036;2023-04-19T04:53:26;100419.47;;;11.82;39.95
72798;BME280;61084;55.816;37.036;2023-04-19T04:55:53;100422.53;;;11.92;40.13
72798;BME280;61084;55.816;37.036;2023-04-19T04:58:19;100426.59;;;12.00;40.05
72798;BME280;61084;55.816;37.036;2023-04-19T05:00:59;100429.66;;;12.10;40.16
72798;BME280;61084;55.816;37.036;2023-04-19T05:03:26;100432.97;;;12.15;40.00
72798;BME280;61084;55.816;37.036;2023-04-19T05:05:56;100432.03;;;12.16;39.51
72798;BME280;61084;55.816;37.036;2023-04-19T05:08:26;100428.34;;;12.20;39.64
72798;BME280;61084;55.816;37.036;2023-04-19T05:10:57;100429.94;;;12.24;39.35
72798;BME280;61084;55.816;37.036;2023-04-19T05:13:26;100435.81;;;12.31;39.41
72798;BME280;61084;55.816;37.036;2023-04-19T05:15:53;100433.75;;;12.37;39.52
72798;BME280;61084;55.816;37.036;2023-04-19T05:18:19;100436.13;;;12.43;39.42
72798;BME280;61084;55.816;37.036;2023-04-19T05:20:45;100434.00;;;12.51;39.44
72798;BME280;61084;55.816;37.036;2023-04-19T05:23:18;100429.22;;;12.59;39.37
72798;BME280;61084;55.816;37.036;2023-04-19T05:25:44;100434.88;;;12.70;39.12
72798;BME280;61084;55.816;37.036;2023-04-19T05:28:10;100438.81;;;12.80;39.35
72798;BME280;61084;55.816;37.036;2023-04-19T05:30:44;100444.50;;;12.90;39.00
72798;BME280;61084;55.816;37.036;2023-04-19T05:33:11;100432.56;;;13.02;38.76
72798;BME280;61084;55.816;37.036;2023-04-19T05:35:37;100432.00;;;13.14;39.00
72798;BME280;61084;55.816;37.036;2023-04-19T05:38:03;100437.50;;;13.28;39.06
72798;BME280;61084;55.816;37.036;2023-04-19T05:40:29;100438.00;;;13.36;38.49
72798;BME280;61084;55.816;37.036;2023-04-19T05:42:57;100429.56;;;13.46;38.45
72798;BME280;61084;55.816;37.036;2023-04-19T05:45:24;100437.75;;;13.59;38.38
72798;BME280;61084;55.816;37.036;2023-04-19T05:47:51;100439.88;;;13.70;38.09
72798;BME280;61084;55.816;37.036;2023-04-19T05:50:19;100444.53;;;13.82;37.96
72798;BME280;61084;55.816;37.036;2023-04-19T05:53:00;100437.78;;;13.93;37.76
72798;BME280;61084;55.816;37.036;2023-04-19T05:55:26;100453.63;;;14.10;37.36
72798;BME280;61084;55.816;37.036;2023-04-19T05:57:51;100448.75;;;14.20;37.19
72798;BME280;61084;55.816;37.036;2023-04-19T06:00:22;100451.16;;;14.24;36.80
72798;BME280;61084;55.816;37.036;2023-04-19T06:02:57;100452.78;;;14.27;36.97
72798;BME280;61084;55.816;37.036;2023-04-19T06:05:23;100457.03;;;14.31;36.85
72798;BME280;61084;55.816;37.036;2023-04-19T06:07:49;100454.84;;;14.39;36.57
72798;BME280;61084;55.816;37.036;2023-04-19T06:10:15;100464.59;;;14.54;36.71
72798;BME280;61084;55.816;37.036;2023-04-19T06:12:41;100457.66;;;14.69;36.45
72798;BME280;61084;55.816;37.036;2023-04-19T06:15:07;100452.22;;;14.72;36.34
72798;BME280;61084;55.816;37.036;2023-04-19T06:17:34;100453.53;;;14.80;36.09
72798;BME280;61084;55.816;37.036;2023-04-19T06:20:00;100455.97;;;14.83;35.79
72798;BME280;61084;55.816;37.036;2023-04-19T06:22:26;100458.06;;;14.94;36.16
72798;BME280;61084;55.816;37.036;2023-04-19T06:24:52;100456.72;;;15.02;35.98
72798;BME280;61084;55.816;37.036;2023-04-19T06:27:18;100454.75;;;15.06;35.71
72798;BME280;61084;55.816;37.036;2023-04-19T06:29:43;100456.28;;;15.10;36.00
72798;BME280;61084;55.816;37.036;2023-04-19T06:32:09;100463.22;;;15.13;35.09
72798;BME280;61084;55.816;37.036;2023-04-19T06:34:35;100456.56;;;15.21;35.08
72798;BME280;61084;55.816;37.036;2023-04-19T06:37:01;100452.41;;;15.33;34.38
72798;BME280;61084;55.816;37.036;2023-04-19T06:39:27;100448.94;;;15.48;35.27
72798;BME280;61084;55.816;37.036;2023-04-19T06:41:53;100454.88;;;15.67;35.06
72798;BME280;61084;55.816;37.036;2023-04-19T06:44:19;100454.75;;;15.84;34.46
72798;BME280;61084;55.816;37.036;2023-04-19T06:46:44;100454.72;;;16.00;34.91
72798;BME280;61084;55.816;37.036;2023-04-19T06:49:10;100458.53;;;16.10;33.91
72798;BME280;61084;55.816;37.036;2023-04-19T06:51:38;100466.81;;;16.19;34.16
72798;BME280;61084;55.816;37.036;2023-04-19T06:54:04;100465.59;;;16.25;33.80
72798;BME280;61084;55.816;37.036;2023-04-19T06:56:47;100464.19;;;16.33;33.56
72798;BME280;61084;55.816;37.036;2023-04-19T06:59:18;100465.25;;;16.31;33.77
72798;BME280;61084;55.816;37.036;2023-04-19T07:01:45;100467.78;;;16.32;33.75
72798;BME280;61084;55.816;37.036;2023-04-19T07:04:12;100467.69;;;16.34;33.97
72798;BME280;61084;55.816;37.036;2023-04-19T07:06:38;100467.53;;;16.37;33.73
72798;BME280;61084;55.816;37.036;2023-04-19T07:09:05;100466.22;;;16.44;33.79
72798;BME280;61084;55.816;37.036;2023-04-19T07:11:32;100465.78;;;16.51;33.70
72798;BME280;61084;55.816;37.036;2023-04-19T07:13:58;100465.34;;;16.59;32.76
72798;BME280;61084;55.816;37.036;2023-04-19T07:16:27;100461.81;;;16.73;32.85
72798;BME280;61084;55.816;37.036;2023-04-19T07:18:53;100453.78;;;16.88;33.18
72798;BME280;61084;55.816;37.036;2023-04-19T07:21:19;100452.34;;;16.97;32.33
72798;BME280;61084;55.816;37.036;2023-04-19T07:23:45;100449.06;;;16.93;33.27
72798;BME280;61084;55.816;37.036;2023-04-19T07:26:11;100453.72;;;16.90;32.59
72798;BME280;61084;55.816;37.036;2023-04-19T07:28:38;100452.84;;;16.89;32.77
72798;BME280;61084;55.816;37.036;2023-04-19T07:31:04;100456.16;;;16.93;32.65
72798;BME280;61084;55.816;37.036;2023-04-19T07:33:30;100451.81;;;16.92;32.25
72798;BME280;61084;55.816;37.036;2023-04-19T07:35:56;100456.63;;;16.99;32.24
72798;BME280;61084;55.816;37.036;2023-04-19T07:38:23;100449.72;;;17.11;32.54
72798;BME280;61084;55.816;37.036;2023-04-19T07:40:50;100449.66;;;17.25;32.86
72798;BME280;61084;55.816;37.036;2023-04-19T07:43:16;100450.41;;;17.27;31.51
72798;BME280;61084;55.816;37.036;2023-04-19T07:45:41;100454.28;;;17.35;32.15
72798;BME280;61084;55.816;37.036;2023-04-19T07:48:07;100452.50;;;17.36;31.86
72798;BME280;61084;55.816;37.036;2023-04-19T07:50:33;100448.91;;;17.37;32.08
72798;BME280;61084;55.816;37.036;2023-04-19T07:52:59;100448.69;;;17.40;31.41
72798;BME280;61084;55.816;37.036;2023-04-19T07:55:25;100453.72;;;17.45;31.81
72798;BME280;61084;55.816;37.036;2023-04-19T07:57:51;100460.19;;;17.55;31.80
72798;BME280;61084;55.816;37.036;2023-04-19T08:00:17;100453.31;;;17.65;31.77
72798;BME280;61084;55.816;37.036;2023-04-19T08:02:46;100460.13;;;17.69;31.63
72798;BME280;61084;55.816;37.036;2023-04-19T08:05:14;100462.38;;;17.75;32.31
72798;BME280;61084;55.816;37.036;2023-04-19T08:07:43;100463.13;;;17.77;31.72
72798;BME280;61084;55.816;37.036;2023-04-19T08:10:09;100450.25;;;17.71;28.70
72798;BME280;61084;55.816;37.036;2023-04-19T08:12:36;100463.63;;;17.69;31.07
72798;BME280;61084;55.816;37.036;2023-04-19T08:15:03;100461.44;;;17.76;31.65
72798;BME280;61084;55.816;37.036;2023-04-19T08:17:30;100462.47;;;17.73;31.25
72798;BME280;61084;55.816;37.036;2023-04-19T08:19:56;100455.81;;;17.80;30.71
72798;BME280;61084;55.816;37.036;2023-04-19T08:22:22;100464.88;;;17.90;30.25
72798;BME280;61084;55.816;37.036;2023-04-19T08:24:49;100457.13;;;17.87;30.56
72798;BME280;61084;55.816;37.036;2023-04-19T08:27:16;100460.13;;;17.95;31.06
72798;BME280;61084;55.816;37.036;2023-04-19T08:29:42;100463.84;;;18.05;30.50
72798;BME280;61084;55.816;37.036;2023-04-19T08:32:09;100457.75;;;18.18;30.51
72798;BME280;61084;55.816;37.036;2023-04-19T08:34:35;100462.34;;;18.28;30.93
72798;BME280;61084;55.816;37.036;2023-04-19T08:37:02;100458.63;;;18.31;30.74
72798;BME280;61084;55.816;37.036;2023-04-19T08:39:28;100455.84;;;18.32;30.46
72798;BME280;61084;55.816;37.036;2023-04-19T08:41:55;100455.53;;;18.37;31.07
72798;BME280;61084;55.816;37.036;2023-04-19T08:44:22;100458.94;;;18.39;30.05
72798;BME280;61084;55.816;37.036;2023-04-19T08:46:50;100457.69;;;18.44;30.53
72798;BME280;61084;55.816;37.036;2023-04-19T08:49:16;100451.97;;;18.50;29.46
72798;BME280;61084;55.816;37.036;2023-04-19T08:51:48;100446.78;;;18.61;30.04
72798;BME280;61084;55.816;37.036;2023-04-19T08:54:15;100444.41;;;18.69;29.92
72798;BME280;61084;55.816;37.036;2023-04-19T08:56:42;100448.75;;;18.70;28.30
72798;BME280;61084;55.816;37.036;2023-04-19T08:59:09;100447.72;;;18.73;28.97
72798;BME280;61084;55.816;37.036;2023-04-19T09:01:35;100449.97;;;18.79;29.74
72798;BME280;61084;55.816;37.036;2023-04-19T09:04:03;100449.84;;;18.80;29.39
72798;BME280;61084;55.816;37.036;2023-04-19T09:06:39;100448.56;;;18.73;28.81
72798;BME280;61084;55.816;37.036;2023-04-19T09:09:17;100446.09;;;18.70;29.15
72798;BME280;61084;55.816;37.036;2023-04-19T09:11:43;100441.97;;;18.79;29.18
72798;BME280;61084;55.816;37.036;2023-04-19T09:14:10;100442.91;;;18.91;29.10
72798;BME280;61084;55.816;37.036;2023-04-19T09:16:36;100430.44;;;19.04;30.24
72798;BME280;61084;55.816;37.036;2023-04-19T09:19:04;100425.53;;;19.10;29.74
72798;BME280;61084;55.816;37.036;2023-04-19T09:21:31;100427.75;;;19.16;29.41
72798;BME280;61084;55.816;37.036;2023-04-19T09:23:58;100431.25;;;19.17;28.75
72798;BME280;61084;55.816;37.036;2023-04-19T09:26:25;100417.63;;;19.21;27.98
72798;BME280;61084;55.816;37.036;2023-04-19T09:28:58;100424.53;;;19.24;28.37
72798;BME280;61084;55.816;37.036;2023-04-19T09:31:26;100417.91;;;19.29;28.38
72798;BME280;61084;55.816;37.036;2023-04-19T09:33:53;100422.28;;;19.43;28.69
72798;BME280;61084;55.816;37.036;2023-04-19T09:36:33;100422.97;;;19.58;28.01
72798;BME280;61084;55.816;37.036;2023-04-19T09:38:59;100422.75;;;19.61;28.86
72798;BME280;61084;55.816;37.036;2023-04-19T09:41:25;100417.88;;;19.54;28.47
72798;BME280;61084;55.816;37.036;2023-04-19T09:43:51;100416.91;;;19.55;28.59
72798;BME280;61084;55.816;37.036;2023-04-19T09:46:50;100421.00;;;19.48;27.38
72798;BME280;61084;55.816;37.036;2023-04-19T09:51:46;100419.63;;;19.67;28.53
72798;BME280;61084;55.816;37.036;2023-04-19T09:54:15;100414.69;;;19.73;28.67
72798;BME280;61084;55.816;37.036;2023-04-19T09:56:41;100414.69;;;19.73;28.45
72798;BME280;61084;55.816;37.036;2023-04-19T09:59:07;100415.06;;;19.80;28.37
72798;BME280;61084;55.816;37.036;2023-04-19T10:01:41;100423.25;;;19.89;28.44
72798;BME280;61084;55.816;37.036;2023-04-19T10:04:09;100411.13;;;19.85;28.33
72798;BME280;61084;55.816;37.036;2023-04-19T10:06:38;100411.22;;;19.84;27.99
72798;BME280;61084;55.816;37.036;2023-04-19T10:09:05;100414.19;;;19.92;26.21
72798;BME280;61084;55.816;37.036;2023-04-19T10:11:34;100400.69;;;19.82;27.38
72798;BME280;61084;55.816;37.036;2023-04-19T10:14:08;100411.72;;;19.89;27.89
72798;BME280;61084;55.816;37.036;2023-04-19T10:16:35;100410.06;;;19.99;28.62
72798;BME280;61084;55.816;37.036;2023-04-19T10:19:10;100408.16;;;20.01;27.97
72798;BME280;61084;55.816;37.036;2023-04-19T10:21:37;100410.91;;;19.99;27.45
72798;BME280;61084;55.816;37.036;2023-04-19T10:24:03;100408.97;;;20.01;27.57
72798;BME280;61084;55.816;37.036;2023-04-19T10:26:29;100407.19;;;20.02;27.57
72798;BME280;61084;55.816;37.036;2023-04-19T10:29:15;100404.56;;;20.13;28.04
72798;BME280;61084;55.816;37.036;2023-04-19T10:32:06;100399.59;;;20.19;27.49
72798;BME280;61084;55.816;37.036;2023-04-19T10:34:40;100402.06;;;20.22;27.80
72798;BME280;61084;55.816;37.036;2023-04-19T10:37:09;100406.41;;;20.23;27.07
72798;BME280;61084;55.816;37.036;2023-04-19T10:39:42;100391.78;;;20.29;27.13
72798;BME280;61084;55.816;37.036;2023-04-19T10:42:09;100392.75;;;20.39;27.70
72798;BME280;61084;55.816;37.036;2023-04-19T10:44:35;100395.19;;;20.42;26.38
72798;BME280;61084;55.816;37.036;2023-04-19T10:47:01;100393.75;;;20.49;27.42
72798;BME280;61084;55.816;37.036;2023-04-19T10:49:29;100393.63;;;20.51;27.93
72798;BME280;61084;55.816;37.036;2023-04-19T10:51:56;100388.03;;;20.54;27.91
72798;BME280;61084;55.816;37.036;2023-04-19T10:54:32;100387.31;;;20.63;27.24
72798;BME280;61084;55.816;37.036;2023-04-19T10:57:00;100399.09;;;20.71;27.14
72798;BME280;61084;55.816;37.036;2023-04-19T10:59:30;100394.97;;;20.78;27.23
72798;BME280;61084;55.816;37.036;2023-04-19T11:02:05;100393.16;;;20.79;27.02
72798;BME280;61084;55.816;37.036;2023-04-19T11:07:16;100388.56;;;20.92;27.21
72798;BME280;61084;55.816;37.036;2023-04-19T11:09:44;100383.09;;;20.93;27.00
72798;BME280;61084;55.816;37.036;2023-04-19T11:12:15;100381.00;;;20.97;26.51
72798;BME280;61084;55.816;37.036;2023-04-19T11:14:56;100383.59;;;21.10;26.09
72798;BME280;61084;55.816;37.036;2023-04-19T11:17:27;100378.59;;;21.16;27.17
72798;BME280;61084;55.816;37.036;2023-04-19T11:19:56;100375.16;;;21.25;26.59
72798;BME280;61084;55.816;37.036;2023-04-19T11:22:32;100371.16;;;21.31;26.79
72798;BME280;61084;55.816;37.036;2023-04-19T11:25:15;100378.09;;;21.22;26.22
72798;BME280;61084;55.816;37.036;2023-04-19T11:27:49;100370.69;;;21.26;26.83
72798;BME280;61084;55.816;37.036;2023-04-19T11:30:21;100374.78;;;21.30;26.67
72798;BME280;61084;55.816;37.036;2023-04-19T11:32:53;100364.09;;;21.41;26.10
72798;BME280;61084;55.816;37.036;2023-04-19T11:35:21;100365.88;;;21.51;26.56
72798;BME280;61084;55.816;37.036;2023-04-19T11:37:47;100363.81;;;21.55;26.52
72798;BME280;61084;55.816;37.036;2023-04-19T11:40:14;100362.28;;;21.62;25.73
72798;BME280;61084;55.816;37.036;2023-04-19T11:42:40;100357.47;;;21.56;25.79
72798;BME280;61084;55.816;37.036;2023-04-19T11:45:06;100353.56;;;21.60;26.56
72798;BME280;61084;55.816;37.036;2023-04-19T11:47:32;100359.19;;;21.57;26.03
72798;BME280;61084;55.816;37.036;2023-04-19T11:52:57;100364.00;;;21.63;26.28
72798;BME280;61084;55.816;37.036;2023-04-19T11:55:23;100353.78;;;21.68;26.03
72798;BME280;61084;55.816;37.036;2023-04-19T11:57:49;100356.47;;;21.68;25.97
72798;BME280;61084;55.816;37.036;2023-04-19T12:00:15;100354.91;;;21.65;25.57
72798;BME280;61084;55.816;37.036;2023-04-19T12:02:42;100357.53;;;21.76;25.44
72798;BME280;61084;55.816;37.036;2023-04-19T12:05:10;100354.31;;;21.94;25.95
72798;BME280;61084;55.816;37.036;2023-04-19T12:07:36;100340.47;;;22.09;26.58
72798;BME280;61084;55.816;37.036;2023-04-19T12:10:10;100339.81;;;22.17;26.03
72798;BME280;61084;55.816;37.036;2023-04-19T12:12:37;100339.25;;;22.13;26.43
72798;BME280;61084;55.816;37.036;2023-04-19T12:15:04;100343.56;;;22.05;25.56
72798;BME280;61084;55.816;37.036;2023-04-19T12:17:30;100345.22;;;22.06;25.58
72798;BME280;61084;55.816;37.036;2023-04-19T12:19:56;100335.00;;;22.11;25.92
72798;BME280;61084;55.816;37.036;2023-04-19T12:22:22;100341.72;;;22.05;25.76
72798;BME280;61084;55.816;37.036;2023-04-19T12:24:51;100338.25;;;21.94;26.04
72798;BME280;61084;55.816;37.036;2023-04-19T12:27:20;100343.13;;;21.89;25.67
72798;BME280;61084;55.816;37.036;2023-04-19T12:29:46;100337.41;;;21.93;25.55
72798;BME280;61084;55.816;37.036;2023-04-19T12:32:12;100334.81;;;22.03;25.62
72798;BME280;61084;55.816;37.036;2023-04-19T12:34:40;100337.22;;;22.06;24.54
72798;BME280;61084;55.816;37.036;2023-04-19T12:37:07;100331.34;;;22.12;25.67
72798;BME280;61084;55.816;37.036;2023-04-19T12:39:33;100329.72;;;22.20;25.55
72798;BME280;61084;55.816;37.036;2023-04-19T12:41:58;100324.28;;;22.31;25.00
72798;BME280;61084;55.816;37.036;2023-04-19T12:44:25;100323.91;;;22.45;25.13
72798;BME280;61084;55.816;37.036;2023-04-19T12:46:51;100314.50;;;22.51;22.56
72798;BME280;61084;55.816;37.036;2023-04-19T12:49:21;100324.19;;;22.42;24.70
72798;BME280;61084;55.816;37.036;2023-04-19T12:51:47;100321.28;;;22.25;24.74